Time;durP1;ratioP1;P1;durP2;ratioP2;P2;SDS_P1;SDS_P2;PMS_P1;PMS_P2;Temp;Humidity;BMP_temperature;BMP_pressure;BME280_temperature;BME280_humidity;BME280_pressure;Samples;Min_cycle;Max_cycle;Signal;HPM_P1;HPM_P2
2022/10/31 00:01:18;;;;;;;22.23;17.57;;;14.20;99.90;;;;;;5044442;28;20689;-69
2022/10/31 00:03:45;;;;;;;24.90;16.30;;;14.20;99.90;;;;;;5045654;28;20471;-67
2022/10/31 00:06:12;;;;;;;20.43;18.00;;;14.30;99.90;;;;;;5044080;28;20966;-68
2022/10/31 00:08:39;;;;;;;23.07;17.37;;;14.40;99.90;;;;;;5048892;28;20846;-70
2022/10/31 00:11:09;;;;;;;23.63;16.30;;;14.50;99.90;;;;;;5046458;28;20720;-70
2022/10/31 00:13:38;;;;;;;19.77;15.93;;;14.60;99.90;;;;;;5045445;28;20476;-68
2022/10/31 00:16:13;;;;;;;17.83;15.17;;;14.60;99.90;;;;;;5046212;28;20464;-68
2022/10/31 00:18:40;;;;;;;19.47;14.90;;;14.60;99.90;;;;;;5046350;28;20510;-68
2022/10/31 00:21:07;;;;;;;16.73;14.90;;;14.50;99.90;;;;;;5048286;28;20500;-70
2022/10/31 00:23:35;;;;;;;18.50;16.70;;;14.50;99.90;;;;;;5044638;28;20491;-69
2022/10/31 00:26:02;;;;;;;20.00;16.07;;;14.50;99.90;;;;;;5046272;28;20510;-68
2022/10/31 00:28:31;;;;;;;19.43;15.67;;;14.50;99.90;;;;;;5045827;28;20487;-68
2022/10/31 00:31:00;;;;;;;21.40;16.03;;;14.50;99.90;;;;;;5045472;28;20572;-69
2022/10/31 00:33:29;;;;;;;21.80;17.70;;;14.50;99.90;;;;;;5045226;28;20563;-68
2022/10/31 00:35:59;;;;;;;27.87;16.37;;;14.50;99.90;;;;;;5046863;28;20471;-68
2022/10/31 00:38:25;;;;;;;24.13;16.03;;;14.50;99.90;;;;;;5045917;28;20460;-69
2022/10/31 00:40:52;;;;;;;17.30;15.70;;;14.60;99.90;;;;;;5045714;28;20495;-69
2022/10/31 00:43:21;;;;;;;20.10;16.90;;;14.50;99.90;;;;;;5045668;28;20510;-69
2022/10/31 00:45:48;;;;;;;28.10;18.10;;;14.60;99.90;;;;;;5044339;28;21400;-69
2022/10/31 00:48:15;;;;;;;21.67;18.17;;;14.70;99.90;;;;;;5043784;28;20464;-68
2022/10/31 00:50:44;;;;;;;28.57;17.90;;;14.80;99.90;;;;;;5048049;28;20543;-68
2022/10/31 00:53:11;;;;;;;20.57;17.20;;;14.90;99.90;;;;;;5045528;28;20463;-69
2022/10/31 00:55:39;;;;;;;17.63;15.70;;;14.90;99.90;;;;;;5045469;28;20535;-70
2022/10/31 00:58:06;;;;;;;24.90;17.17;;;14.80;99.90;;;;;;5045791;28;20491;-68
2022/10/31 01:00:33;;;;;;;23.47;17.93;;;14.90;99.90;;;;;;5043918;28;20491;-69
2022/10/31 01:02:59;;;;;;;24.50;16.37;;;15.00;99.90;;;;;;5045955;28;20486;-69
2022/10/31 01:05:26;;;;;;;18.80;16.90;;;15.10;99.90;;;;;;5045517;28;20456;-68
2022/10/31 01:07:55;;;;;;;25.50;17.00;;;15.00;99.90;;;;;;5044818;28;20467;-68
2022/10/31 01:10:22;;;;;;;23.20;17.90;;;15.00;99.90;;;;;;5045144;28;20468;-68
2022/10/31 01:12:49;;;;;;;21.80;15.77;;;14.90;99.90;;;;;;5041675;28;21012;-69
2022/10/31 01:15:20;;;;;;;25.17;17.23;;;14.90;99.90;;;;;;5045573;28;20538;-68
2022/10/31 01:17:47;;;;;;;18.67;16.77;;;14.70;99.90;;;;;;5042095;28;20475;-68
2022/10/31 01:20:16;;;;;;;23.43;16.70;;;14.60;99.90;;;;;;5043052;28;20534;-68
2022/10/31 01:22:43;;;;;;;20.13;17.67;;;14.40;99.90;;;;;;5045385;28;20475;-68
2022/10/31 01:25:12;;;;;;;21.23;18.33;;;14.30;99.90;;;;;;5045159;28;20468;-68
2022/10/31 01:27:40;;;;;;;24.30;18.47;;;14.20;99.90;;;;;;5044208;28;20475;-68
2022/10/31 01:30:08;;;;;;;19.27;17.37;;;14.10;99.90;;;;;;5044809;28;20491;-70
2022/10/31 01:32:35;;;;;;;21.10;18.90;;;14.00;99.90;;;;;;5045332;28;20537;-70
2022/10/31 01:35:02;;;;;;;20.43;18.27;;;13.90;99.90;;;;;;5045793;28;20471;-69
2022/10/31 01:37:28;;;;;;;24.07;19.40;;;13.90;99.90;;;;;;5044884;28;20467;-70
2022/10/31 01:39:55;;;;;;;21.17;18.87;;;13.80;99.90;;;;;;5045103;28;20463;-68
2022/10/31 01:42:25;;;;;;;27.13;19.80;;;13.70;99.90;;;;;;5042660;28;20467;-68
2022/10/31 01:44:58;;;;;;;26.90;19.33;;;13.50;99.90;;;;;;5048272;28;20555;-68
2022/10/31 01:47:38;;;;;;;32.13;21.53;;;13.40;99.90;;;;;;5042407;28;20522;-69
2022/10/31 01:50:12;;;;;;;23.53;20.73;;;13.40;99.90;;;;;;5041301;28;20529;-69
2022/10/31 01:52:42;;;;;;;23.87;19.30;;;13.40;99.90;;;;;;5044402;28;21035;-68
2022/10/31 01:55:12;;;;;;;29.80;19.43;;;13.20;99.90;;;;;;5045024;28;21019;-70
2022/10/31 01:57:46;;;;;;;22.83;19.00;;;13.10;99.90;;;;;;5045208;28;20464;-68
2022/10/31 02:00:14;;;;;;;31.83;18.70;;;13.00;99.90;;;;;;5042629;28;20480;-68
2022/10/31 02:02:42;;;;;;;23.73;19.40;;;12.90;99.90;;;;;;5048681;28;20467;-70
2022/10/31 02:05:13;;;;;;;27.40;19.27;;;12.90;99.90;;;;;;5048601;28;20475;-67
2022/10/31 02:07:46;;;;;;;19.70;17.50;;;12.80;99.90;;;;;;5041179;28;21030;-68
2022/10/31 02:10:13;;;;;;;20.80;18.67;;;12.70;99.90;;;;;;5048587;28;20472;-70
2022/10/31 02:12:42;;;;;;;20.77;18.67;;;12.70;99.90;;;;;;5048626;28;20518;-68
2022/10/31 02:15:10;;;;;;;21.93;18.17;;;12.80;99.90;;;;;;5048481;28;20850;-70
2022/10/31 02:17:38;;;;;;;21.50;17.63;;;12.70;99.90;;;;;;5048110;28;20471;-69
2022/10/31 02:20:14;;;;;;;22.97;17.90;;;12.70;99.90;;;;;;5047099;28;20471;-70
2022/10/31 02:23:15;;;;;;;18.07;16.37;;;12.70;99.90;;;;;;5044346;28;20467;-69
2022/10/31 02:26:08;;;;;;;17.60;15.90;;;12.60;99.90;;;;;;5046801;28;20502;-68
2022/10/31 02:29:10;;;;;;;20.23;18.07;;;12.60;99.90;;;;;;5047329;28;20549;-68
2022/10/31 02:31:46;;;;;;;22.63;19.30;;;12.70;99.90;;;;;;5043947;28;20528;-68
2022/10/31 02:34:19;;;;;;;25.70;18.90;;;12.70;99.90;;;;;;5044347;28;20890;-70
2022/10/31 02:36:55;;;;;;;29.67;19.33;;;12.70;99.90;;;;;;5047438;28;20474;-70
2022/10/31 02:39:26;;;;;;;22.60;18.13;;;12.60;99.90;;;;;;5040185;28;20978;-68
2022/10/31 02:42:05;;;;;;;21.83;19.23;;;12.50;99.90;;;;;;5048776;28;20589;-68
2022/10/31 02:44:38;;;;;;;29.57;19.83;;;12.50;99.90;;;;;;5049626;28;20962;-70
2022/10/31 02:47:09;;;;;;;21.47;19.30;;;12.40;99.90;;;;;;5046689;28;20466;-68
2022/10/31 02:49:41;;;;;;;20.23;17.53;;;12.40;99.90;;;;;;5048139;28;20467;-68
2022/10/31 02:52:18;;;;;;;26.57;18.20;;;12.40;99.90;;;;;;5047197;28;20516;-67
2022/10/31 02:54:46;;;;;;;24.27;19.97;;;12.30;99.90;;;;;;5049903;28;21045;-70
2022/10/31 02:57:14;;;;;;;21.70;19.53;;;12.20;99.90;;;;;;5049597;28;20529;-68
2022/10/31 02:59:46;;;;;;;24.40;19.30;;;12.20;99.90;;;;;;5047587;28;20958;-68
2022/10/31 03:02:39;;;;;;;29.43;21.53;;;12.30;99.90;;;;;;5047100;28;20519;-68
2022/10/31 03:05:34;;;;;;;39.33;23.60;;;12.40;99.90;;;;;;5039245;28;20468;-67
2022/10/31 03:08:07;;;;;;;20.83;18.73;;;12.40;99.90;;;;;;5043249;28;20464;-67
2022/10/31 03:10:42;;;;;;;24.73;19.80;;;12.40;99.90;;;;;;5043051;28;20787;-70
2022/10/31 03:13:13;;;;;;;24.30;21.80;;;12.40;99.90;;;;;;5046570;28;20517;-67
2022/10/31 03:15:44;;;;;;;29.90;21.53;;;12.40;99.90;;;;;;5047854;28;21092;-70
2022/10/31 03:18:18;;;;;;;29.03;22.83;;;12.50;99.90;;;;;;5048454;28;20483;-69
2022/10/31 03:20:49;;;;;;;28.70;22.33;;;12.50;99.90;;;;;;5046542;28;20468;-68
2022/10/31 03:23:18;;;;;;;29.93;21.57;;;12.50;99.90;;;;;;5045769;28;20537;-68
2022/10/31 03:25:47;;;;;;;21.40;19.03;;;12.60;99.90;;;;;;5046138;28;20950;-67
2022/10/31 03:28:19;;;;;;;21.40;19.10;;;12.70;99.90;;;;;;5048866;28;20893;-68
2022/10/31 03:30:47;;;;;;;24.70;19.87;;;12.70;99.90;;;;;;5047704;28;20549;-68
2022/10/31 03:33:21;;;;;;;23.87;20.67;;;12.70;99.90;;;;;;5046290;28;21025;-68
2022/10/31 03:35:53;;;;;;;26.30;20.33;;;12.70;99.90;;;;;;5046157;28;20529;-68
2022/10/31 03:38:22;;;;;;;18.80;16.80;;;12.70;99.90;;;;;;5047106;28;20464;-67
2022/10/31 03:40:52;;;;;;;28.13;21.13;;;12.70;99.90;;;;;;5045995;28;20464;-67
2022/10/31 03:43:23;;;;;;;23.90;19.67;;;12.60;99.90;;;;;;5044827;28;21311;-68
2022/10/31 03:45:49;;;;;;;30.50;22.57;;;12.60;99.90;;;;;;5053351;28;20470;-69
2022/10/31 03:48:20;;;;;;;31.63;22.90;;;12.50;99.90;;;;;;5046192;28;20467;-68
2022/10/31 03:51:07;;;;;;;24.77;20.60;;;12.50;99.90;;;;;;5045615;28;20527;-69
2022/10/31 03:53:39;;;;;;;29.13;21.17;;;12.50;99.90;;;;;;5044547;28;20464;-68
2022/10/31 03:56:12;;;;;;;21.83;19.27;;;12.50;99.90;;;;;;5042210;28;20533;-68
2022/10/31 03:58:44;;;;;;;22.33;19.93;;;12.40;99.90;;;;;;5046870;28;20464;-67
2022/10/31 04:01:15;;;;;;;23.23;18.13;;;12.40;99.90;;;;;;5045147;28;20479;-69
2022/10/31 04:03:45;;;;;;;23.30;19.70;;;12.30;99.90;;;;;;5042548;28;20822;-68
2022/10/31 04:06:16;;;;;;;24.90;20.23;;;12.30;99.90;;;;;;5044004;28;20908;-68
2022/10/31 04:08:46;;;;;;;33.77;21.27;;;12.20;99.90;;;;;;5046390;28;20455;-69
2022/10/31 04:11:14;;;;;;;31.73;21.90;;;12.30;99.90;;;;;;5045207;28;20477;-69
2022/10/31 04:13:45;;;;;;;59.23;24.03;;;12.30;99.90;;;;;;5047060;28;20460;-67
2022/10/31 04:16:15;;;;;;;25.90;20.80;;;12.30;99.90;;;;;;5046656;28;20509;-68
2022/10/31 04:18:43;;;;;;;24.60;20.47;;;12.30;99.90;;;;;;5043639;28;20963;-67
2022/10/31 04:21:10;;;;;;;33.10;22.03;;;12.30;99.90;;;;;;5044289;28;20997;-68
2022/10/31 04:23:38;;;;;;;28.70;21.10;;;12.30;99.90;;;;;;5045190;28;20506;-67
2022/10/31 04:26:05;;;;;;;31.60;19.83;;;12.40;99.90;;;;;;5047320;28;20909;-69
2022/10/31 04:28:33;;;;;;;40.80;22.97;;;12.30;99.90;;;;;;5044477;28;20479;-69
2022/10/31 04:31:01;;;;;;;32.50;18.37;;;12.20;99.90;;;;;;5042406;28;20554;-67
2022/10/31 04:33:28;;;;;;;33.13;19.53;;;12.10;99.90;;;;;;5042055;28;20504;-69
2022/10/31 04:35:56;;;;;;;42.83;22.23;;;12.00;99.90;;;;;;5041762;28;20468;-68
2022/10/31 04:38:23;;;;;;;41.47;20.37;;;12.00;99.90;;;;;;5048065;28;20463;-68
2022/10/31 04:40:50;;;;;;;51.83;24.00;;;11.90;99.90;;;;;;5045771;28;20460;-67
2022/10/31 04:43:17;;;;;;;56.83;23.40;;;11.90;99.90;;;;;;5046406;28;20486;-69
2022/10/31 04:45:43;;;;;;;45.63;22.40;;;12.00;99.90;;;;;;5045928;28;20476;-68
2022/10/31 04:48:11;;;;;;;62.47;24.50;;;12.00;99.90;;;;;;5045609;28;20475;-68
2022/10/31 04:50:37;;;;;;;53.20;24.83;;;12.00;99.90;;;;;;5042321;28;20517;-69
2022/10/31 04:53:06;;;;;;;49.37;23.47;;;12.00;99.90;;;;;;5041360;28;20467;-66
2022/10/31 04:55:32;;;;;;;29.57;20.43;;;12.10;99.90;;;;;;5044425;28;20498;-67
2022/10/31 04:58:00;;;;;;;41.27;22.90;;;12.10;99.90;;;;;;5042022;28;20472;-67
2022/10/31 05:00:27;;;;;;;38.43;22.40;;;12.20;99.90;;;;;;5045116;28;20471;-68
2022/10/31 05:02:56;;;;;;;28.93;20.53;;;12.10;99.90;;;;;;5036978;28;21005;-69
2022/10/31 05:05:25;;;;;;;32.47;21.80;;;12.10;99.90;;;;;;5040187;28;20467;-68
2022/10/31 05:07:53;;;;;;;35.43;22.97;;;12.10;99.90;;;;;;5039921;28;20889;-67
2022/10/31 05:10:22;;;;;;;52.23;25.37;;;12.10;99.90;;;;;;5044325;28;20513;-68
2022/10/31 05:12:50;;;;;;;50.73;23.87;;;12.10;99.90;;;;;;5039220;28;21424;-69
2022/10/31 05:15:18;;;;;;;35.00;25.50;;;12.10;99.90;;;;;;5041698;28;20459;-67
2022/10/31 05:17:45;;;;;;;48.10;27.73;;;12.10;99.90;;;;;;5043776;28;20494;-66
2022/10/31 05:20:13;;;;;;;41.73;22.87;;;12.10;99.90;;;;;;5040571;28;20468;-68
2022/10/31 05:22:44;;;;;;;22.63;20.10;;;12.10;99.90;;;;;;5039940;28;20491;-69
2022/10/31 05:25:11;;;;;;;22.80;20.33;;;12.00;99.90;;;;;;5040253;28;20486;-67
2022/10/31 05:27:41;;;;;;;29.77;20.87;;;11.90;99.90;;;;;;5044297;28;20578;-69
2022/10/31 05:30:09;;;;;;;23.23;19.27;;;11.90;99.90;;;;;;5042542;28;20517;-66
2022/10/31 05:32:39;;;;;;;26.00;22.40;;;11.80;99.90;;;;;;5044264;28;20475;-68
2022/10/31 05:35:09;;;;;;;23.00;20.97;;;11.70;99.90;;;;;;5044785;28;20464;-67
2022/10/31 05:37:36;;;;;;;39.00;23.20;;;11.80;99.90;;;;;;5043908;28;20506;-69
2022/10/31 05:40:03;;;;;;;35.30;24.03;;;11.70;99.90;;;;;;5044178;28;20479;-68
2022/10/31 05:42:30;;;;;;;24.03;21.40;;;11.70;99.90;;;;;;5042405;28;20582;-67
2022/10/31 05:44:59;;;;;;;29.53;21.40;;;11.70;99.90;;;;;;5045569;28;20547;-67
2022/10/31 05:47:26;;;;;;;25.27;21.97;;;11.60;99.90;;;;;;5042279;28;20955;-67
2022/10/31 05:49:53;;;;;;;38.83;23.00;;;11.70;99.90;;;;;;5044565;28;20467;-68
2022/10/31 05:52:20;;;;;;;35.60;24.63;;;11.60;99.90;;;;;;5044299;28;20467;-67
2022/10/31 05:54:48;;;;;;;28.77;24.50;;;11.60;99.90;;;;;;5045995;28;20806;-67
2022/10/31 05:57:15;;;;;;;45.03;23.67;;;11.60;99.90;;;;;;5042619;28;20523;-67
2022/10/31 05:59:41;;;;;;;38.07;25.30;;;11.60;99.90;;;;;;5044133;28;20460;-67
2022/10/31 06:02:10;;;;;;;36.97;23.40;;;11.50;99.90;;;;;;5040416;28;20909;-67
2022/10/31 06:04:37;;;;;;;30.63;23.80;;;11.50;99.90;;;;;;5040575;28;20464;-67
2022/10/31 06:07:04;;;;;;;32.77;23.13;;;11.60;99.90;;;;;;5041789;28;20494;-68
2022/10/31 06:09:31;;;;;;;25.33;21.40;;;11.60;99.90;;;;;;5043167;28;21186;-69
2022/10/31 06:11:57;;;;;;;26.97;23.37;;;11.60;99.90;;;;;;5042675;28;21022;-67
2022/10/31 06:14:24;;;;;;;38.03;26.10;;;11.60;99.90;;;;;;5041934;28;20472;-67
2022/10/31 06:16:51;;;;;;;39.03;23.97;;;11.50;99.90;;;;;;5043056;28;20468;-68
2022/10/31 06:19:20;;;;;;;29.77;23.00;;;11.60;99.90;;;;;;5042309;28;20465;-67
2022/10/31 06:21:47;;;;;;;44.43;25.10;;;11.60;99.90;;;;;;5039986;28;20910;-67
2022/10/31 06:24:15;;;;;;;45.40;26.73;;;11.60;99.90;;;;;;5043362;28;20456;-67
2022/10/31 06:26:42;;;;;;;47.97;26.23;;;11.60;99.90;;;;;;5042002;28;20530;-67
2022/10/31 06:29:09;;;;;;;27.07;21.93;;;11.70;99.90;;;;;;5041480;28;20483;-68
2022/10/31 06:31:35;;;;;;;29.27;22.47;;;11.80;99.90;;;;;;5038385;28;20484;-68
2022/10/31 06:34:02;;;;;;;33.80;23.87;;;11.90;99.90;;;;;;5043497;28;20970;-66
2022/10/31 06:36:30;;;;;;;42.93;26.17;;;11.80;99.90;;;;;;5041438;28;20868;-69
2022/10/31 06:38:58;;;;;;;41.20;28.50;;;11.80;99.90;;;;;;5044089;28;20472;-67
2022/10/31 06:41:25;;;;;;;44.30;27.90;;;11.80;99.90;;;;;;5041108;28;20507;-67
2022/10/31 06:43:52;;;;;;;37.80;24.77;;;11.90;99.90;;;;;;5039704;28;20491;-67
2022/10/31 06:46:19;;;;;;;28.90;22.73;;;11.90;99.90;;;;;;5042186;28;20459;-67
2022/10/31 06:48:45;;;;;;;49.20;25.07;;;11.90;99.90;;;;;;5044696;28;20463;-69
2022/10/31 06:51:12;;;;;;;35.30;24.90;;;11.80;99.90;;;;;;5046206;28;20505;-67
2022/10/31 06:53:40;;;;;;;39.53;24.97;;;11.90;99.90;;;;;;5041508;28;20468;-66
2022/10/31 06:56:08;;;;;;;35.77;26.13;;;12.00;99.90;;;;;;5045299;28;20460;-67
2022/10/31 06:58:35;;;;;;;25.10;20.90;;;12.00;99.90;;;;;;5043522;28;20444;-67
2022/10/31 07:01:02;;;;;;;28.77;22.03;;;12.00;99.90;;;;;;5042719;28;20463;-69
2022/10/31 07:03:29;;;;;;;39.43;23.07;;;12.00;99.90;;;;;;5046985;28;20560;-67
2022/10/31 07:05:57;;;;;;;36.70;24.13;;;12.00;99.90;;;;;;5043589;28;20496;-67
2022/10/31 07:08:26;;;;;;;37.90;25.87;;;12.00;99.90;;;;;;5040963;28;21089;-67
2022/10/31 07:10:55;;;;;;;48.53;26.30;;;12.10;99.90;;;;;;5045128;28;20463;-66
2022/10/31 07:13:25;;;;;;;31.23;23.57;;;12.20;99.90;;;;;;5044797;28;20537;-66
2022/10/31 07:15:53;;;;;;;41.97;24.50;;;12.30;99.90;;;;;;5043300;28;20455;-67
2022/10/31 07:18:21;;;;;;;36.77;23.83;;;12.30;99.90;;;;;;5047933;28;20543;-67
2022/10/31 07:20:48;;;;;;;43.50;24.13;;;12.30;99.90;;;;;;5044625;28;20524;-68
2022/10/31 07:23:16;;;;;;;34.37;23.13;;;12.40;99.90;;;;;;5042066;28;20506;-69
2022/10/31 07:25:43;;;;;;;43.30;24.63;;;12.40;99.90;;;;;;5045378;28;20496;-67
2022/10/31 07:28:11;;;;;;;40.60;25.80;;;12.50;99.90;;;;;;5041793;28;20492;-71
2022/10/31 07:30:38;;;;;;;41.30;25.07;;;12.60;99.90;;;;;;5042826;28;20876;-67
2022/10/31 07:33:06;;;;;;;39.90;23.70;;;12.70;99.90;;;;;;5038862;28;20514;-67
2022/10/31 07:35:34;;;;;;;36.00;22.63;;;12.60;99.90;;;;;;5043441;28;20514;-66
2022/10/31 07:38:08;;;;;;;45.90;23.17;;;12.70;99.90;;;;;;5046214;28;20836;-68
2022/10/31 07:40:35;;;;;;;47.77;23.53;;;12.70;99.90;;;;;;5040107;28;20542;-67
2022/10/31 07:43:02;;;;;;;39.67;22.30;;;12.80;99.90;;;;;;5046931;28;20487;-67
2022/10/31 07:45:31;;;;;;;47.30;23.20;;;12.90;99.90;;;;;;5041137;28;20479;-67
2022/10/31 07:47:58;;;;;;;53.00;23.20;;;12.90;99.90;;;;;;5040628;28;20508;-67
2022/10/31 07:50:26;;;;;;;44.03;23.20;;;12.90;99.90;;;;;;5043990;28;20543;-68
2022/10/31 07:53:00;;;;;;;43.60;21.60;;;12.90;99.90;;;;;;5045901;28;20456;-67
2022/10/31 07:55:27;;;;;;;49.07;23.43;;;13.00;99.90;;;;;;5045839;28;20463;-67
2022/10/31 07:57:59;;;;;;;45.30;22.50;;;13.00;99.90;;;;;;5046184;28;20459;-67
2022/10/31 08:00:26;;;;;;;55.93;25.57;;;13.00;99.90;;;;;;5046051;28;20465;-67
2022/10/31 08:03:02;;;;;;;41.73;23.33;;;13.10;99.90;;;;;;5044400;28;20970;-67
2022/10/31 08:05:30;;;;;;;53.63;25.70;;;13.10;99.90;;;;;;5041332;28;20867;-67
2022/10/31 08:07:58;;;;;;;49.57;24.50;;;13.20;99.90;;;;;;5046950;28;21285;-68
2022/10/31 08:10:26;;;;;;;55.10;25.63;;;13.30;99.90;;;;;;5046545;28;20547;-67
2022/10/31 08:12:58;;;;;;;51.40;25.03;;;13.30;99.90;;;;;;5042076;28;20507;-67
2022/10/31 08:15:26;;;;;;;55.40;25.40;;;13.40;99.90;;;;;;5044190;28;20915;-68
2022/10/31 08:17:54;;;;;;;49.60;23.53;;;13.60;99.90;;;;;;5043374;28;20548;-67
2022/10/31 08:20:22;;;;;;;62.10;25.63;;;13.80;99.90;;;;;;5042658;28;20502;-66
2022/10/31 08:22:56;;;;;;;55.33;23.83;;;13.90;99.90;;;;;;5045775;28;20534;-67
2022/10/31 08:25:24;;;;;;;45.23;23.93;;;14.10;99.90;;;;;;5047166;28;20467;-67
2022/10/31 08:27:52;;;;;;;42.87;22.80;;;14.10;99.90;;;;;;5046980;28;20484;-67
2022/10/31 08:30:20;;;;;;;37.47;22.07;;;14.20;99.90;;;;;;5043040;28;20464;-68
2022/10/31 08:32:47;;;;;;;35.60;21.47;;;14.20;99.90;;;;;;5045386;28;20986;-69
2022/10/31 08:35:14;;;;;;;35.93;21.40;;;14.20;99.90;;;;;;5045504;28;20521;-67
2022/10/31 08:37:42;;;;;;;36.53;21.83;;;14.30;99.90;;;;;;5043102;28;20882;-67
2022/10/31 08:40:10;;;;;;;36.50;24.10;;;14.40;99.90;;;;;;5047688;28;20472;-67
2022/10/31 08:42:37;;;;;;;38.20;22.47;;;14.50;99.90;;;;;;5044417;28;20487;-69
2022/10/31 08:45:05;;;;;;;38.13;21.97;;;14.50;99.90;;;;;;5045122;28;20467;-68
2022/10/31 08:47:33;;;;;;;37.80;21.20;;;14.60;99.90;;;;;;5042998;28;20464;-66
2022/10/31 08:50:00;;;;;;;38.23;21.27;;;14.80;99.90;;;;;;5045779;28;20475;-67
2022/10/31 08:52:27;;;;;;;35.17;20.33;;;14.90;99.90;;;;;;5043608;28;20990;-68
2022/10/31 08:54:55;;;;;;;33.40;20.13;;;15.00;99.90;;;;;;5044830;28;20457;-67
2022/10/31 08:57:22;;;;;;;38.70;20.57;;;15.20;99.90;;;;;;5045929;28;20897;-68
2022/10/31 08:59:49;;;;;;;36.27;20.20;;;15.40;99.90;;;;;;5043972;28;20964;-67
2022/10/31 09:02:16;;;;;;;30.40;20.23;;;15.50;99.90;;;;;;5043967;28;20955;-67
2022/10/31 09:04:43;;;;;;;36.00;19.03;;;15.50;99.90;;;;;;5045171;28;20496;-68
2022/10/31 09:07:09;;;;;;;22.40;18.63;;;15.50;99.90;;;;;;5044427;28;20476;-68
2022/10/31 09:09:36;;;;;;;29.47;19.73;;;15.60;99.90;;;;;;5045601;28;20534;-70
2022/10/31 09:12:04;;;;;;;27.00;18.93;;;15.70;99.90;;;;;;5044883;28;20468;-70
2022/10/31 09:14:32;;;;;;;28.30;17.83;;;15.80;99.90;;;;;;5045711;28;21064;-70
2022/10/31 09:17:00;;;;;;;29.13;17.87;;;16.10;99.90;;;;;;5041765;28;20495;-68
2022/10/31 09:19:27;;;;;;;20.30;18.17;;;16.40;99.90;;;;;;5044121;28;20542;-70
2022/10/31 09:21:55;;;;;;;31.07;19.27;;;16.60;99.90;;;;;;5044236;28;20528;-68
2022/10/31 09:24:22;;;;;;;26.27;18.80;;;16.90;99.90;;;;;;5042278;28;20910;-70
2022/10/31 09:26:49;;;;;;;28.00;18.77;;;17.00;99.90;;;;;;5041859;28;20456;-68
2022/10/31 09:29:17;;;;;;;23.30;20.00;;;17.30;99.90;;;;;;5043103;28;20537;-68
2022/10/31 09:31:44;;;;;;;24.73;20.00;;;17.40;99.90;;;;;;5043588;28;20487;-67
2022/10/31 09:34:11;;;;;;;19.87;18.03;;;17.50;99.90;;;;;;5042638;28;20867;-67
2022/10/31 09:36:39;;;;;;;23.83;18.10;;;17.60;99.90;;;;;;5044906;28;20475;-68
2022/10/31 09:39:07;;;;;;;27.37;19.13;;;17.80;99.90;;;;;;5043839;28;21029;-68
2022/10/31 09:41:58;;;;;;;20.97;17.97;;;17.80;99.90;;;;;;5041266;28;20463;-69
2022/10/31 09:44:36;;;;;;;27.93;18.63;;;17.90;99.90;;;;;;5033032;28;21026;-69
2022/10/31 09:47:08;;;;;;;29.47;20.23;;;18.00;99.90;;;;;;5043848;28;20498;-67
2022/10/31 09:49:46;;;;;;;20.60;18.70;;;17.90;99.90;;;;;;5043677;28;22353;-68
2022/10/31 09:52:18;;;;;;;31.27;18.20;;;17.70;99.90;;;;;;5044087;28;20463;-68
2022/10/31 09:54:49;;;;;;;24.37;20.37;;;17.90;99.90;;;;;;5046363;28;20474;-67
2022/10/31 09:57:19;;;;;;;21.97;19.63;;;17.90;99.90;;;;;;5044466;28;20459;-68
2022/10/31 09:59:48;;;;;;;32.30;20.20;;;18.00;99.90;;;;;;5042564;28;20529;-69
2022/10/31 10:02:21;;;;;;;22.93;20.60;;;18.10;99.90;;;;;;5042975;28;20877;-68
2022/10/31 10:04:53;;;;;;;26.40;20.53;;;18.30;99.90;;;;;;5042249;28;20492;-70
2022/10/31 10:07:30;;;;;;;24.07;21.37;;;18.30;99.90;;;;;;5041394;28;20522;-68
2022/10/31 10:09:57;;;;;;;23.93;21.60;;;18.40;99.90;;;;;;5045442;28;20861;-69
2022/10/31 10:12:36;;;;;;;22.10;19.83;;;18.70;99.90;;;;;;5041464;28;20862;-68
2022/10/31 10:15:27;;;;;;;25.10;21.30;;;19.00;99.90;;;;;;5043842;28;20491;-69
2022/10/31 10:18:02;;;;;;;22.83;20.20;;;19.10;99.90;;;;;;5040244;28;20518;-69
2022/10/31 10:20:37;;;;;;;25.67;22.40;;;19.40;99.90;;;;;;5047087;28;20475;-68
2022/10/31 10:23:22;;;;;;;22.57;20.67;;;19.60;99.90;;;;;;5044754;28;20490;-68
2022/10/31 10:25:57;;;;;;;32.43;22.20;;;20.10;99.90;;;;;;5048009;28;20505;-68
2022/10/31 10:28:28;;;;;;;29.30;22.50;;;20.10;99.90;;;;;;5048888;28;20985;-68
2022/10/31 10:31:00;;;;;;;26.40;22.83;;;19.90;99.90;;;;;;5054551;28;20478;-70
2022/10/31 10:33:33;;;;;;;24.80;22.50;;;19.60;99.90;;;;;;5047907;28;20883;-69
2022/10/31 10:36:02;;;;;;;23.87;20.77;;;19.60;99.90;;;;;;5045776;28;20537;-68
2022/10/31 10:38:35;;;;;;;22.90;20.50;;;18.90;99.90;;;;;;5045158;28;20465;-68
2022/10/31 10:41:06;;;;;;;25.03;20.90;;;18.80;99.90;;;;;;5045614;28;20846;-67
2022/10/31 10:43:35;;;;;;;22.57;20.27;;;18.70;99.90;;;;;;5047941;28;20586;-68
2022/10/31 10:49:12;;;;;;;21.77;19.53;;;19.10;99.90;;;;;;5047495;28;20459;-69
2022/10/31 10:51:45;;;;;;;23.53;20.30;;;19.50;99.90;;;;;;5050213;28;20451;-69
2022/10/31 10:54:37;;;;;;;21.23;18.97;;;19.70;99.90;;;;;;5047586;28;20464;-69
2022/10/31 10:57:13;;;;;;;26.23;18.80;;;19.80;99.90;;;;;;5045215;28;20476;-68
2022/10/31 10:59:39;;;;;;;22.60;20.20;;;19.70;99.90;;;;;;5047477;28;21099;-67
2022/10/31 11:02:18;;;;;;;22.77;20.27;;;19.60;99.90;;;;;;5045233;28;20567;-68
2022/10/31 11:04:48;;;;;;;22.60;20.37;;;19.30;99.90;;;;;;5044927;28;20879;-68
2022/10/31 11:07:16;;;;;;;23.97;21.20;;;19.30;99.90;;;;;;5047104;28;21013;-68
2022/10/31 11:09:43;;;;;;;32.30;20.47;;;19.20;99.90;;;;;;5047079;28;20460;-69
2022/10/31 11:12:12;;;;;;;23.07;19.80;;;19.40;99.90;;;;;;5045649;28;20460;-68
2022/10/31 11:14:46;;;;;;;22.60;20.47;;;19.40;99.90;;;;;;5049531;28;20467;-70
2022/10/31 11:17:26;;;;;;;23.20;19.63;;;19.60;99.90;;;;;;5042267;28;20474;-71
2022/10/31 11:20:06;;;;;;;25.67;20.37;;;19.90;99.90;;;;;;5046380;28;20463;-68
2022/10/31 11:22:33;;;;;;;29.00;20.13;;;19.90;99.90;;;;;;5044887;28;20559;-70
2022/10/31 11:25:00;;;;;;;21.30;19.20;;;20.00;99.90;;;;;;5037483;28;20498;-69
2022/10/31 11:27:28;;;;;;;22.03;19.80;;;20.00;99.90;;;;;;5046046;28;20830;-68
2022/10/31 11:30:05;;;;;;;29.30;20.60;;;20.00;99.90;;;;;;5047983;28;20460;-70
2022/10/31 11:32:34;;;;;;;22.00;19.80;;;20.10;99.90;;;;;;5044130;28;21083;-69
2022/10/31 11:35:03;;;;;;;21.73;19.60;;;20.30;99.90;;;;;;5046084;28;20513;-70
2022/10/31 11:37:34;;;;;;;26.63;20.00;;;20.40;99.90;;;;;;5042633;28;20469;-68
2022/10/31 11:40:06;;;;;;;31.83;19.93;;;20.50;99.90;;;;;;5044519;28;20479;-68
2022/10/31 11:42:38;;;;;;;20.87;18.87;;;20.80;99.90;;;;;;5041829;28;20471;-70
2022/10/31 11:45:14;;;;;;;21.80;19.73;;;21.20;99.90;;;;;;5046507;28;20541;-69
2022/10/31 11:47:46;;;;;;;21.73;19.57;;;21.50;99.90;;;;;;5040628;28;20546;-68
2022/10/31 11:50:20;;;;;;;26.37;18.60;;;21.60;99.90;;;;;;5046016;28;20525;-69
2022/10/31 11:52:48;;;;;;;20.63;19.00;;;21.60;99.90;;;;;;5045818;28;20461;-69
2022/10/31 11:55:18;;;;;;;22.30;19.80;;;21.80;99.90;;;;;;5045562;28;20539;-68
2022/10/31 11:57:48;;;;;;;26.00;20.70;;;21.60;99.90;;;;;;5045355;28;20460;-68
2022/10/31 12:00:23;;;;;;;25.50;18.57;;;21.80;99.90;;;;;;5045209;28;20546;-69
2022/10/31 12:02:52;;;;;;;22.80;18.87;;;21.80;99.90;;;;;;5044169;28;20472;-69
2022/10/31 12:05:22;;;;;;;19.93;17.90;;;21.80;99.90;;;;;;5041778;28;20813;-68
2022/10/31 12:07:49;;;;;;;20.17;18.30;;;22.20;99.90;;;;;;5047294;28;20770;-70
2022/10/31 12:10:16;;;;;;;20.33;18.33;;;22.40;99.90;;;;;;5042138;28;20551;-69
2022/10/31 12:12:58;;;;;;;20.80;19.20;;;22.30;99.90;;;;;;5044944;28;20468;-69
2022/10/31 12:15:36;;;;;;;19.97;18.17;;;22.30;99.90;;;;;;5043623;28;20471;-69
2022/10/31 12:18:45;;;;;;;20.30;18.40;;;22.10;99.90;;;;;;5043627;28;20988;-68
2022/10/31 12:21:22;;;;;;;21.73;19.47;;;22.20;99.90;;;;;;5033982;28;21279;-69
2022/10/31 12:23:59;;;;;;;27.53;17.67;;;22.50;99.90;;;;;;5038529;28;20830;-70
2022/10/31 12:26:34;;;;;;;21.57;17.97;;;22.70;99.90;;;;;;5043781;28;20468;-68
2022/10/31 12:29:16;;;;;;;20.27;18.20;;;23.20;99.90;;;;;;5044717;28;20816;-69
2022/10/31 12:31:52;;;;;;;30.27;17.67;;;23.20;99.90;;;;;;5042373;28;20487;-71
2022/10/31 12:34:51;;;;;;;21.67;19.43;;;23.20;99.90;;;;;;5044094;28;20471;-69
2022/10/31 12:37:32;;;;;;;19.67;17.80;;;23.30;99.90;;;;;;5045578;28;20537;-69
2022/10/31 12:40:22;;;;;;;19.43;17.73;;;23.20;99.90;;;;;;5042889;28;20958;-69
2022/10/31 12:43:04;;;;;;;20.63;18.63;;;23.20;99.90;;;;;;5044272;28;20464;-68
2022/10/31 12:45:45;;;;;;;20.77;18.47;;;23.50;99.90;;;;;;5045066;28;20500;-69
2022/10/31 12:48:32;;;;;;;21.63;19.27;;;23.10;99.90;;;;;;5043566;28;20566;-69